Time;durP1;ratioP1;P1;durP2;ratioP2;P2;SDS_P1;SDS_P2;PMS_P1;PMS_P2;Temp;Humidity;BMP_temperature;BMP_pressure;BME280_temperature;BME280_humidity;BME280_pressure;Samples;Min_cycle;Max_cycle;Signal;HPM_P1;HPM_P2
2022/02/20 09:36:32;;;;;;;3.90;2.70;;;;;;;2.84;74.49;98946.31;212506;1312;649341;-77
2022/02/20 09:41:37;;;;;;;4.80;4.30;;;;;;;2.97;74.55;98955.95;210296;1288;142109;-70
2022/02/20 09:46:43;;;;;;;2.90;2.40;;;;;;;2.97;74.69;98960.73;210946;1287;140359;-77
2022/02/20 09:51:47;;;;;;;3.00;2.10;;;;;;;3.01;74.96;98964.13;211136;1287;140905;-80
2022/02/20 09:56:52;;;;;;;4.90;2.60;;;;;;;3.03;75.18;98965.75;212805;1280;141154;-76
2022/02/20 10:02:07;;;;;;;2.50;2.30;;;;;;;3.08;75.57;98971.40;212907;1280;141582;-75
2022/02/20 10:07:26;;;;;;;2.90;2.60;;;;;;;3.17;75.58;98976.94;212174;1280;140087;-74
2022/02/20 10:12:31;;;;;;;1.60;1.40;;;;;;;3.25;75.44;98976.44;213121;1280;141047;-70
2022/02/20 10:17:34;;;;;;;2.50;2.30;;;;;;;3.30;75.22;98984.22;213463;1280;139060;-75
2022/02/20 10:22:38;;;;;;;2.70;1.70;;;;;;;3.34;75.47;98980.93;213642;1280;139944;-77
2022/02/20 10:27:51;;;;;;;3.20;2.90;;;;;;;3.39;75.79;98976.31;212384;1282;139083;-74
2022/02/20 10:33:24;;;;;;;6.70;2.70;;;;;;;3.41;76.06;98971.57;213623;1282;139528;-75
2022/02/20 10:38:37;;;;;;;2.70;2.50;;;;;;;3.38;76.18;98970.64;213049;1282;140986;-77
2022/02/20 10:43:42;;;;;;;3.70;2.70;;;;;;;3.39;76.22;98975.78;213848;1282;141796;-75
2022/02/20 10:48:49;;;;;;;3.90;2.50;;;;;;;3.43;76.16;98977.92;214213;1283;139537;-76
2022/02/20 10:53:54;;;;;;;4.80;3.40;;;;;;;3.42;76.29;98980.67;214144;1282;141302;-75
2022/02/20 10:58:59;;;;;;;4.50;2.70;;;;;;;3.45;76.32;98982.59;213425;1282;141176;-75
2022/02/20 11:04:11;;;;;;;5.10;3.70;;;;;;;3.46;76.45;98985.67;214196;1283;139543;-75
2022/02/20 11:09:16;;;;;;;3.90;2.10;;;;;;;3.46;76.24;98987.85;213197;1282;140670;-74
2022/02/20 11:14:21;;;;;;;7.70;3.80;;;;;;;3.44;76.33;98985.46;213669;1283;139483;-76
2022/02/20 11:19:28;;;;;;;5.30;4.40;;;;;;;3.44;76.64;98988.50;212148;1283;140094;-78
2022/02/20 11:24:35;;;;;;;4.60;3.70;;;;;;;3.48;76.65;98984.86;212870;1283;140253;-79
2022/02/20 11:29:39;;;;;;;5.30;4.20;;;;;;;3.48;76.75;98986.55;212792;1282;139592;-78
2022/02/20 11:34:45;;;;;;;4.60;4.20;;;;;;;3.47;77.20;98988.34;213445;1283;140656;-77
2022/02/20 11:40:12;;;;;;;5.00;4.50;;;;;;;3.49;76.79;98986.88;212636;1282;139632;-74
2022/02/20 11:45:18;;;;;;;4.70;4.30;;;;;;;3.51;77.02;98991.98;211924;1283;139885;-77
2022/02/20 11:50:26;;;;;;;7.90;5.80;;;;;;;3.50;77.11;98998.35;211764;1283;141405;-75
2022/02/20 11:55:37;;;;;;;4.10;3.80;;;;;;;3.45;76.91;99002.00;212555;1282;140064;-79
2022/02/20 12:01:07;;;;;;;5.30;4.90;;;;;;;3.44;77.08;99002.52;211866;1283;139427;-75
2022/02/20 12:06:18;;;;;;;6.10;4.60;;;;;;;3.48;77.12;99009.58;211719;1283;139475;-77
2022/02/20 12:11:44;;;;;;;7.90;5.40;;;;;;;3.56;77.30;99003.77;211946;1282;140706;-71
2022/02/20 12:16:56;;;;;;;6.90;6.30;;;;;;;3.62;77.16;99006.95;213417;1283;139953;-75
2022/02/20 12:22:09;;;;;;;6.60;5.00;;;;;;;3.69;77.39;99009.79;212802;1282;140051;-74
2022/02/20 12:27:28;;;;;;;6.30;4.80;;;;;;;3.81;77.27;99008.95;212817;1281;140239;-79
2022/02/20 12:32:34;;;;;;;5.70;4.60;;;;;;;3.85;77.07;99011.00;213931;1281;140022;-71
2022/02/20 12:37:42;;;;;;;4.90;4.20;;;;;;;3.88;76.96;99007.18;212535;1282;141521;-69
2022/02/20 12:42:55;;;;;;;5.50;5.00;;;;;;;3.95;76.94;99003.42;212681;1281;140336;-72
2022/02/20 12:48:16;;;;;;;6.20;5.20;;;;;;;4.07;76.84;99002.30;213958;1281;139866;-74
2022/02/20 12:53:24;;;;;;;4.10;3.70;;;;;;;4.16;76.69;99000.48;214018;1282;139967;-76
2022/02/20 12:58:29;;;;;;;4.00;3.70;;;;;;;4.25;76.50;98996.82;214545;1281;140999;-76
2022/02/20 13:03:34;;;;;;;7.20;3.60;;;;;;;4.31;76.04;99000.21;214616;1281;142222;-77
2022/02/20 13:08:39;;;;;;;4.40;3.00;;;;;;;4.42;75.82;99003.33;214581;1280;141663;-77
2022/02/20 13:13:43;;;;;;;5.20;4.70;;;;;;;4.51;75.61;99010.70;214699;1281;141703;-78
2022/02/20 13:18:47;;;;;;;3.00;2.80;;;;;;;4.54;75.75;99008.86;214654;1280;141660;-78
2022/02/20 13:23:52;;;;;;;7.80;4.30;;;;;;;4.58;75.53;99007.98;214673;1281;140448;-74
2022/02/20 13:28:58;;;;;;;4.60;4.10;;;;;;;4.66;75.32;99004.70;213357;1280;141056;-72
2022/02/20 13:34:03;;;;;;;5.70;4.00;;;;;;;4.91;75.18;98985.78;214077;1281;141055;-76
2022/02/20 13:39:13;;;;;;;5.50;4.80;;;;;;;5.19;75.16;98991.95;213009;1281;140950;-77
2022/02/20 13:44:29;;;;;;;3.50;3.10;;;;;;;5.22;74.85;98987.77;213208;1281;140434;-76
2022/02/20 13:49:43;;;;;;;4.40;4.00;;;;;;;5.12;74.31;98990.96;212618;1281;140227;-76
2022/02/20 13:54:48;;;;;;;7.00;4.30;;;;;;;5.01;74.10;98988.29;212430;1280;140437;-79
2022/02/20 13:59:53;;;;;;;7.50;4.40;;;;;;;4.95;74.15;98992.11;213165;1281;140659;-75
2022/02/20 14:04:57;;;;;;;4.00;3.70;;;;;;;4.98;74.07;98979.65;212659;1281;140890;-71
2022/02/20 14:10:09;;;;;;;3.80;3.50;;;;;;;5.05;74.01;98980.05;212795;1281;140308;-73
2022/02/20 14:15:27;;;;;;;4.50;4.10;;;;;;;5.14;73.94;98971.48;212983;1282;140211;-73
2022/02/20 14:20:43;;;;;;;5.70;4.20;;;;;;;5.21;74.18;98967.98;212539;1280;140963;-73
2022/02/20 14:25:55;;;;;;;5.20;3.80;;;;;;;5.24;73.74;98966.85;212992;1282;139669;-73
2022/02/20 14:31:08;;;;;;;4.30;4.00;;;;;;;5.19;73.45;98964.02;212994;1281;140069;-73
2022/02/20 14:36:18;;;;;;;7.30;4.20;;;;;;;5.17;73.57;98965.92;213442;1281;139168;-73
2022/02/20 14:41:22;;;;;;;4.00;3.60;;;;;;;5.19;73.67;98962.02;213797;1281;139959;-75
2022/02/20 14:46:27;;;;;;;5.50;4.10;;;;;;;5.20;73.63;98956.95;213780;1282;139546;-74
2022/02/20 14:51:33;;;;;;;5.70;5.00;;;;;;;5.20;73.65;98961.30;212278;1281;139871;-73
2022/02/20 14:56:40;;;;;;;4.40;4.00;;;;;;;5.21;73.64;98957.25;212413;1282;150279;-74
2022/02/20 15:01:43;;;;;;;4.20;3.00;;;;;;;5.23;73.71;98951.45;214281;1281;139541;-74
2022/02/20 15:06:50;;;;;;;2.90;2.70;;;;;;;5.26;73.82;98942.85;213661;1280;139668;-74
2022/02/20 15:11:54;;;;;;;5.50;3.60;;;;;;;5.24;73.64;98936.81;214780;1280;140267;-76
2022/02/20 15:16:59;;;;;;;6.00;3.00;;;;;;;5.24;73.61;98928.48;214625;1282;139345;-77
2022/02/20 15:22:03;;;;;;;3.80;3.50;;;;;;;5.21;73.53;98917.94;214756;1281;140387;-75
2022/02/20 15:27:07;;;;;;;4.30;3.80;;;;;;;5.23;73.53;98905.52;214752;1282;140826;-76
2022/02/20 15:32:11;;;;;;;5.80;3.60;;;;;;;5.24;73.61;98897.98;214758;1281;139570;-78
2022/02/20 15:37:16;;;;;;;5.40;4.20;;;;;;;5.26;73.61;98890.08;213624;1282;139598;-76
2022/02/20 15:42:20;;;;;;;5.80;3.20;;;;;;;5.28;73.58;98883.19;214536;1281;139982;-79
2022/02/20 15:47:24;;;;;;;5.30;2.90;;;;;;;5.27;73.44;98872.06;213629;1281;139521;-77
2022/02/20 15:52:28;;;;;;;4.90;2.80;;;;;;;5.24;73.49;98864.38;214057;1281;141365;-73
2022/02/20 15:57:32;;;;;;;4.90;3.80;;;;;;;5.20;73.46;98852.48;213200;1282;140032;-75
2022/02/20 16:02:37;;;;;;;4.20;3.40;;;;;;;5.17;73.62;98851.88;213331;1281;152534;-79
2022/02/20 16:07:41;;;;;;;2.90;2.60;;;;;;;5.13;73.78;98843.59;212972;1282;139372;-72
2022/02/20 16:12:45;;;;;;;6.70;4.40;;;;;;;5.12;73.82;98835.59;214026;1281;140339;-71
2022/02/20 16:17:50;;;;;;;6.70;4.10;;;;;;;5.13;73.63;98829.73;213216;1281;140214;-72
2022/02/20 16:22:55;;;;;;;5.40;3.40;;;;;;;5.13;73.63;98822.86;213338;1281;140534;-69
2022/02/20 16:27:59;;;;;;;4.50;3.80;;;;;;;5.14;73.75;98818.73;213404;1281;142236;-75
2022/02/20 16:33:04;;;;;;;4.60;3.80;;;;;;;5.15;73.84;98815.69;213302;1281;141038;-70
2022/02/20 16:38:11;;;;;;;12.30;4.80;;;;;;;5.13;73.50;98812.79;213512;1282;141151;-72
2022/02/20 16:43:15;;;;;;;4.80;3.30;;;;;;;5.10;73.60;98812.85;213190;1281;141509;-71
2022/02/20 16:48:19;;;;;;;9.50;7.10;;;;;;;5.06;73.65;98814.32;213657;1279;139752;-71
2022/02/20 16:53:23;;;;;;;5.30;3.90;;;;;;;4.99;73.74;98802.77;214784;1279;140747;-69
2022/02/20 16:58:29;;;;;;;5.30;3.50;;;;;;;4.90;74.03;98792.36;213990;1280;142668;-73
2022/02/20 17:03:34;;;;;;;5.10;4.40;;;;;;;4.84;74.05;98785.66;212323;1280;142246;-68
2022/02/20 17:08:38;;;;;;;11.90;7.70;;;;;;;4.82;74.17;98772.27;214241;1280;141817;-73
2022/02/20 17:13:42;;;;;;;7.70;6.80;;;;;;;4.78;74.54;98762.33;214594;1280;142744;-74
2022/02/20 17:18:46;;;;;;;5.60;4.80;;;;;;;4.74;74.72;98751.04;214235;1280;141010;-73
2022/02/20 17:23:50;;;;;;;8.40;4.50;;;;;;;4.69;74.80;98744.66;214969;1279;139100;-76
2022/02/20 17:28:54;;;;;;;10.60;4.70;;;;;;;4.68;74.84;98742.64;215144;1279;139288;-74
2022/02/20 17:33:58;;;;;;;6.20;2.60;;;;;;;4.70;74.90;98738.89;215017;1279;140845;-73
2022/02/20 17:39:03;;;;;;;8.70;5.00;;;;;;;4.72;74.84;98726.56;215274;1279;139895;-71
2022/02/20 17:44:07;;;;;;;11.50;6.10;;;;;;;4.72;75.16;98717.26;214186;1278;140385;-71
2022/02/20 17:49:12;;;;;;;8.30;6.60;;;;;;;4.76;75.26;98710.92;212931;1279;140913;-70
2022/02/20 17:54:17;;;;;;;10.60;5.40;;;;;;;4.76;75.37;98705.89;213154;1279;139857;-72
2022/02/20 17:59:21;;;;;;;8.30;5.20;;;;;;;4.77;75.30;98705.35;214969;1280;139484;-72
2022/02/20 18:04:25;;;;;;;13.80;7.50;;;;;;;4.72;75.35;98704.95;213679;1279;139275;-73
2022/02/20 18:09:29;;;;;;;7.50;5.00;;;;;;;4.74;75.53;98701.31;212755;1279;140404;-67
2022/02/20 18:14:33;;;;;;;9.20;5.50;;;;;;;4.77;75.51;98695.64;213464;1280;144949;-76
2022/02/20 18:19:38;;;;;;;7.50;4.10;;;;;;;4.79;75.78;98688.99;213194;1279;142713;-74
2022/02/20 18:24:45;;;;;;;6.60;3.40;;;;;;;4.79;75.89;98685.98;212416;1280;139152;-69
2022/02/20 18:29:50;;;;;;;9.60;3.90;;;;;;;4.79;76.11;98684.86;214178;1280;139938;-72
2022/02/20 18:34:56;;;;;;;10.20;6.60;;;;;;;4.79;76.00;98680.35;212593;1281;139884;-73
2022/02/20 18:40:03;;;;;;;9.30;6.00;;;;;;;4.80;76.36;98682.05;213325;1279;139885;-74
2022/02/20 18:45:10;;;;;;;11.90;6.20;;;;;;;4.81;76.42;98680.65;213360;1277;140137;-74
2022/02/20 18:50:16;;;;;;;11.20;6.00;;;;;;;4.80;76.61;98666.80;212799;1277;140600;-74
2022/02/20 18:55:21;;;;;;;5.90;3.60;;;;;;;4.80;76.93;98647.77;213940;1276;141069;-74
2022/02/20 19:00:26;;;;;;;5.20;3.30;;;;;;;4.78;76.88;98631.25;214933;1277;140944;-75
2022/02/20 19:05:29;;;;;;;3.00;2.80;;;;;;;4.81;77.09;98620.73;212900;1277;141286;-74
2022/02/20 19:10:34;;;;;;;7.40;3.80;;;;;;;4.83;77.44;98603.16;214648;1277;142172;-75
2022/02/20 19:15:40;;;;;;;5.00;2.60;;;;;;;4.82;77.45;98593.45;214130;1277;141254;-74
2022/02/20 19:20:44;;;;;;;7.40;2.90;;;;;;;4.79;77.81;98584.44;214867;1276;140316;-74
2022/02/20 19:25:50;;;;;;;3.90;2.50;;;;;;;4.80;78.12;98571.96;215018;1277;140477;-74
2022/02/20 19:30:55;;;;;;;3.10;2.50;;;;;;;4.84;78.22;98561.11;215801;1276;141369;-77
2022/02/20 19:36:01;;;;;;;4.00;1.50;;;;;;;4.87;78.40;98544.04;213011;1277;140492;-74
2022/02/20 19:41:08;;;;;;;4.10;2.40;;;;;;;4.90;78.42;98543.19;215824;1277;140761;-77
2022/02/20 19:46:12;;;;;;;2.30;1.50;;;;;;;4.93;78.88;98535.83;212952;1277;141272;-76
2022/02/20 19:51:16;;;;;;;2.70;1.90;;;;;;;4.96;78.87;98513.97;215625;1277;140596;-75
2022/02/20 19:56:21;;;;;;;4.50;2.30;;;;;;;4.97;79.16;98507.56;214865;1277;140237;-74
2022/02/20 20:01:26;;;;;;;2.40;2.20;;;;;;;5.01;79.33;98515.43;214551;1278;152989;-74
2022/02/20 20:06:33;;;;;;;4.50;2.90;;;;;;;5.08;79.33;98508.78;213862;1279;142506;-69
2022/02/20 20:11:37;;;;;;;3.40;2.30;;;;;;;5.08;79.46;98502.98;214091;1279;141317;-76
2022/02/20 20:16:43;;;;;;;3.40;3.00;;;;;;;5.09;79.69;98497.45;213145;1277;140516;-75
2022/02/20 20:21:47;;;;;;;3.50;2.20;;;;;;;5.14;79.84;98493.27;212631;1277;140226;-71
2022/02/20 20:26:52;;;;;;;4.20;2.80;;;;;;;5.17;79.77;98486.54;213414;1277;142633;-75
2022/02/20 20:31:56;;;;;;;4.40;2.70;;;;;;;5.19;80.09;98481.39;213709;1278;139905;-75
2022/02/20 20:37:05;;;;;;;5.80;2.50;;;;;;;5.20;80.23;98470.99;213023;1278;140453;-75
2022/02/20 20:42:11;;;;;;;2.40;2.20;;;;;;;5.19;80.38;98469.52;213588;1278;140603;-75
2022/02/20 20:47:15;;;;;;;3.50;2.30;;;;;;;5.20;80.20;98461.65;212614;1279;141370;-69
2022/02/20 20:52:21;;;;;;;2.90;2.60;;;;;;;5.22;80.48;98456.52;213306;1279;140442;-74
2022/02/20 20:57:26;;;;;;;3.80;2.50;;;;;;;5.25;80.71;98448.90;213632;1278;141868;-74
2022/02/20 21:02:30;;;;;;;5.30;3.60;;;;;;;5.28;80.33;98427.74;214055;1278;139793;-75
2022/02/20 21:07:35;;;;;;;2.60;2.10;;;;;;;5.29;80.37;98435.73;213897;1278;140064;-75
2022/02/20 21:12:39;;;;;;;3.20;2.00;;;;;;;5.30;80.20;98424.50;214256;1278;139576;-73
2022/02/20 21:17:44;;;;;;;5.70;2.30;;;;;;;5.32;80.47;98405.84;214038;1277;140563;-74
2022/02/20 21:22:48;;;;;;;4.00;2.80;;;;;;;5.34;80.28;98388.81;212974;1277;141582;-75
2022/02/20 21:27:53;;;;;;;3.90;2.10;;;;;;;5.38;80.50;98381.55;214062;1277;142359;-74
2022/02/20 21:32:57;;;;;;;2.90;2.50;;;;;;;5.41;80.10;98373.52;213210;1279;165243;-74
2022/02/20 21:38:01;;;;;;;5.30;2.90;;;;;;;5.44;80.39;98372.52;213891;1277;347428;-76
2022/02/20 21:43:05;;;;;;;5.50;2.60;;;;;;;5.46;80.47;98368.83;215646;1277;139532;-78
2022/02/20 21:48:09;;;;;;;3.00;2.10;;;;;;;5.50;80.23;98364.72;215529;1277;139966;-81
2022/02/20 21:53:15;;;;;;;3.60;1.80;;;;;;;5.56;80.16;98352.02;213979;1279;140981;-75
2022/02/20 21:58:19;;;;;;;3.90;2.50;;;;;;;5.61;80.18;98341.02;213558;1278;143032;-74
2022/02/20 22:03:24;;;;;;;2.00;1.90;;;;;;;5.66;79.90;98329.34;212896;1278;141907;-74
2022/02/20 22:08:29;;;;;;;2.20;2.00;;;;;;;5.70;79.81;98318.45;212768;1279;141498;-75
2022/02/20 22:13:33;;;;;;;3.00;2.50;;;;;;;5.69;79.98;98306.18;214748;1277;139493;-73
2022/02/20 22:18:46;;;;;;;4.70;2.00;;;;;;;5.72;79.88;98306.27;214681;1277;139216;-74
2022/02/20 22:23:51;;;;;;;3.60;2.10;;;;;;;5.77;79.81;98292.92;213504;1279;141317;-76
2022/02/20 22:28:56;;;;;;;5.90;3.00;;;;;;;5.81;80.03;98285.85;213593;1277;140697;-76
2022/02/20 22:34:01;;;;;;;3.90;3.10;;;;;;;5.85;79.73;98272.32;213266;1277;140517;-75
2022/02/20 22:39:06;;;;;;;5.60;2.50;;;;;;;5.90;79.61;98263.00;213282;1277;139210;-70
2022/02/20 22:44:11;;;;;;;4.50;2.10;;;;;;;5.90;79.47;98264.83;212714;1278;139686;-76
2022/02/20 22:49:15;;;;;;;5.80;2.50;;;;;;;5.91;79.45;98259.44;212929;1277;140122;-76
2022/02/20 22:54:20;;;;;;;4.40;2.10;;;;;;;5.93;79.40;98247.89;213170;1278;139638;-74
2022/02/20 22:59:25;;;;;;;2.60;2.20;;;;;;;5.97;79.38;98241.19;212928;1278;139623;-76
2022/02/20 23:04:34;;;;;;;2.90;2.50;;;;;;;5.99;79.40;98233.13;213668;1279;141273;-74
2022/02/20 23:09:37;;;;;;;2.10;1.80;;;;;;;6.03;79.36;98221.81;213776;1277;139679;-70
2022/02/20 23:14:42;;;;;;;4.70;1.90;;;;;;;6.06;79.21;98208.59;214109;1278;140058;-71
2022/02/20 23:19:45;;;;;;;2.20;1.70;;;;;;;6.10;79.20;98207.15;213416;1279;140120;-76
2022/02/20 23:24:50;;;;;;;3.40;2.20;;;;;;;6.14;79.19;98193.22;213712;1279;140542;-76
2022/02/20 23:29:54;;;;;;;3.00;2.40;;;;;;;6.20;78.95;98189.48;214440;1279;141229;-76
2022/02/20 23:35:12;;;;;;;2.50;2.30;;;;;;;6.21;78.96;98177.02;215393;1278;140684;-78
2022/02/20 23:40:18;;;;;;;3.90;2.00;;;;;;;6.26;78.71;98168.58;215275;1279;140694;-73
2022/02/20 23:45:22;;;;;;;3.90;2.30;;;;;;;6.28;78.52;98164.96;215464;1278;140566;-78
2022/02/20 23:50:27;;;;;;;2.70;1.90;;;;;;;6.34;78.71;98158.63;215175;1279;141613;-77
2022/02/20 23:55:31;;;;;;;3.40;2.30;;;;;;;6.38;78.16;98143.13;215295;1278;141537;-77
